sensor_id;sensor_type;location;lat;lon;timestamp;P1;durP1;ratioP1;P2;durP2;ratioP2
7571;SDS011;3827;49.928;8.548;2023-04-06T00:00:09;5.75;;;5.15;;
7571;SDS011;3827;49.928;8.548;2023-04-06T00:02:37;4.97;;;4.50;;
7571;SDS011;3827;49.928;8.548;2023-04-06T00:05:05;4.53;;;4.13;;
7571;SDS011;3827;49.928;8.548;2023-04-06T00:07:33;4.75;;;4.35;;
7571;SDS011;3827;49.928;8.548;2023-04-06T00:10:01;4.43;;;4.03;;
7571;SDS011;3827;49.928;8.548;2023-04-06T00:12:28;4.57;;;3.75;;
7571;SDS011;3827;49.928;8.548;2023-04-06T00:14:55;4.40;;;4.00;;
7571;SDS011;3827;49.928;8.548;2023-04-06T00:17:21;4.20;;;3.80;;
7571;SDS011;3827;49.928;8.548;2023-04-06T00:19:48;4.10;;;3.70;;
7571;SDS011;3827;49.928;8.548;2023-04-06T00:22:15;4.35;;;3.90;;
7571;SDS011;3827;49.928;8.548;2023-04-06T00:24:44;4.70;;;4.28;;
7571;SDS011;3827;49.928;8.548;2023-04-06T00:27:11;4.30;;;3.90;;
7571;SDS011;3827;49.928;8.548;2023-04-06T00:29:39;4.68;;;3.67;;
7571;SDS011;3827;49.928;8.548;2023-04-06T00:32:06;4.05;;;3.50;;
7571;SDS011;3827;49.928;8.548;2023-04-06T00:34:32;3.80;;;3.47;;
7571;SDS011;3827;49.928;8.548;2023-04-06T00:36:59;3.90;;;3.60;;
7571;SDS011;3827;49.928;8.548;2023-04-06T00:39:26;4.55;;;3.70;;
7571;SDS011;3827;49.928;8.548;2023-04-06T00:41:55;3.90;;;3.50;;
7571;SDS011;3827;49.928;8.548;2023-04-06T00:44:22;3.38;;;3.08;;
7571;SDS011;3827;49.928;8.548;2023-04-06T00:46:50;3.75;;;3.45;;
7571;SDS011;3827;49.928;8.548;2023-04-06T00:49:17;4.03;;;3.63;;
7571;SDS011;3827;49.928;8.548;2023-04-06T00:51:44;4.03;;;3.63;;
7571;SDS011;3827;49.928;8.548;2023-04-06T00:54:11;4.25;;;3.72;;
7571;SDS011;3827;49.928;8.548;2023-04-06T00:56:38;3.72;;;3.42;;
7571;SDS011;3827;49.928;8.548;2023-04-06T00:59:06;4.15;;;3.45;;
7571;SDS011;3827;49.928;8.548;2023-04-06T01:01:33;4.40;;;4.00;;
7571;SDS011;3827;49.928;8.548;2023-04-06T01:04:00;5.45;;;4.95;;
7571;SDS011;3827;49.928;8.548;2023-04-06T01:06:27;5.80;;;5.30;;
7571;SDS011;3827;49.928;8.548;2023-04-06T01:08:54;4.90;;;4.50;;
7571;SDS011;3827;49.928;8.548;2023-04-06T01:11:22;5.07;;;4.10;;
7571;SDS011;3827;49.928;8.548;2023-04-06T01:13:49;4.20;;;3.80;;
7571;SDS011;3827;49.928;8.548;2023-04-06T01:16:17;4.30;;;3.90;;
7571;SDS011;3827;49.928;8.548;2023-04-06T01:18:44;6.73;;;5.30;;
7571;SDS011;3827;49.928;8.548;2023-04-06T01:21:11;7.43;;;6.35;;
7571;SDS011;3827;49.928;8.548;2023-04-06T01:23:43;7.00;;;5.57;;
7571;SDS011;3827;49.928;8.548;2023-04-06T01:26:10;6.63;;;5.50;;
7571;SDS011;3827;49.928;8.548;2023-04-06T01:28:37;6.78;;;6.03;;
7571;SDS011;3827;49.928;8.548;2023-04-06T01:31:04;5.87;;;5.37;;
7571;SDS011;3827;49.928;8.548;2023-04-06T01:33:32;5.45;;;4.95;;
7571;SDS011;3827;49.928;8.548;2023-04-06T01:35:59;4.57;;;4.18;;
7571;SDS011;3827;49.928;8.548;2023-04-06T01:38:26;4.65;;;4.25;;
7571;SDS011;3827;49.928;8.548;2023-04-06T01:40:54;4.82;;;4.43;;
7571;SDS011;3827;49.928;8.548;2023-04-06T01:43:21;4.75;;;4.30;;
7571;SDS011;3827;49.928;8.548;2023-04-06T01:45:48;4.72;;;4.15;;
7571;SDS011;3827;49.928;8.548;2023-04-06T01:48:16;4.53;;;4.07;;
7571;SDS011;3827;49.928;8.548;2023-04-06T01:50:43;4.32;;;3.97;;
7571;SDS011;3827;49.928;8.548;2023-04-06T01:53:10;4.20;;;3.83;;
7571;SDS011;3827;49.928;8.548;2023-04-06T01:55:37;4.40;;;4.00;;
7571;SDS011;3827;49.928;8.548;2023-04-06T01:58:05;4.45;;;4.05;;
7571;SDS011;3827;49.928;8.548;2023-04-06T02:00:32;4.60;;;3.80;;
7571;SDS011;3827;49.928;8.548;2023-04-06T02:02:59;4.40;;;4.00;;
7571;SDS011;3827;49.928;8.548;2023-04-06T02:05:26;4.00;;;3.70;;
7571;SDS011;3827;49.928;8.548;2023-04-06T02:07:55;4.32;;;3.92;;
7571;SDS011;3827;49.928;8.548;2023-04-06T02:10:22;4.13;;;3.73;;
7571;SDS011;3827;49.928;8.548;2023-04-06T02:12:49;4.30;;;3.90;;
7571;SDS011;3827;49.928;8.548;2023-04-06T02:15:18;4.40;;;4.00;;
7571;SDS011;3827;49.928;8.548;2023-04-06T02:17:44;4.80;;;4.00;;
7571;SDS011;3827;49.928;8.548;2023-04-06T02:20:11;4.15;;;3.78;;
7571;SDS011;3827;49.928;8.548;2023-04-06T02:22:38;4.35;;;3.95;;
7571;SDS011;3827;49.928;8.548;2023-04-06T02:25:05;4.18;;;3.88;;
7571;SDS011;3827;49.928;8.548;2023-04-06T02:27:33;4.30;;;3.92;;
7571;SDS011;3827;49.928;8.548;2023-04-06T02:30:00;3.90;;;3.60;;
7571;SDS011;3827;49.928;8.548;2023-04-06T02:32:28;4.28;;;3.80;;
7571;SDS011;3827;49.928;8.548;2023-04-06T02:34:55;4.45;;;4.05;;
7571;SDS011;3827;49.928;8.548;2023-04-06T02:37:22;5.33;;;4.70;;
7571;SDS011;3827;49.928;8.548;2023-04-06T02:39:50;4.57;;;4.18;;
7571;SDS011;3827;49.928;8.548;2023-04-06T02:42:16;4.35;;;4.05;;
7571;SDS011;3827;49.928;8.548;2023-04-06T02:44:43;5.20;;;4.40;;
7571;SDS011;3827;49.928;8.548;2023-04-06T02:47:10;4.75;;;4.35;;
7571;SDS011;3827;49.928;8.548;2023-04-06T02:49:38;4.78;;;4.32;;
7571;SDS011;3827;49.928;8.548;2023-04-06T02:52:05;4.75;;;4.35;;
7571;SDS011;3827;49.928;8.548;2023-04-06T02:54:32;4.27;;;3.87;;
7571;SDS011;3827;49.928;8.548;2023-04-06T02:56:59;4.88;;;4.40;;
7571;SDS011;3827;49.928;8.548;2023-04-06T02:59:26;4.50;;;4.10;;
7571;SDS011;3827;49.928;8.548;2023-04-06T03:01:53;4.57;;;4.18;;
7571;SDS011;3827;49.928;8.548;2023-04-06T03:04:20;4.72;;;4.32;;
7571;SDS011;3827;49.928;8.548;2023-04-06T03:06:51;4.45;;;4.10;;
7571;SDS011;3827;49.928;8.548;2023-04-06T03:09:20;4.43;;;4.03;;
7571;SDS011;3827;49.928;8.548;2023-04-06T03:11:47;4.60;;;4.20;;
7571;SDS011;3827;49.928;8.548;2023-04-06T03:14:13;4.80;;;4.40;;
7571;SDS011;3827;49.928;8.548;2023-04-06T03:16:42;4.85;;;4.40;;
7571;SDS011;3827;49.928;8.548;2023-04-06T03:19:09;4.80;;;4.30;;
7571;SDS011;3827;49.928;8.548;2023-04-06T03:21:36;4.68;;;4.20;;
7571;SDS011;3827;49.928;8.548;2023-04-06T03:24:05;4.45;;;4.05;;
7571;SDS011;3827;49.928;8.548;2023-04-06T03:26:32;4.50;;;4.20;;
7571;SDS011;3827;49.928;8.548;2023-04-06T03:28:59;4.70;;;4.30;;
7571;SDS011;3827;49.928;8.548;2023-04-06T03:31:26;4.13;;;3.83;;
7571;SDS011;3827;49.928;8.548;2023-04-06T03:33:53;4.70;;;4.30;;
7571;SDS011;3827;49.928;8.548;2023-04-06T03:36:20;4.65;;;4.25;;
7571;SDS011;3827;49.928;8.548;2023-04-06T03:38:47;4.90;;;4.50;;
7571;SDS011;3827;49.928;8.548;2023-04-06T03:41:15;6.30;;;4.78;;
7571;SDS011;3827;49.928;8.548;2023-04-06T03:43:42;4.60;;;4.20;;
7571;SDS011;3827;49.928;8.548;2023-04-06T03:46:09;5.40;;;4.90;;
7571;SDS011;3827;49.928;8.548;2023-04-06T03:48:36;5.07;;;4.60;;
7571;SDS011;3827;49.928;8.548;2023-04-06T03:51:03;5.28;;;4.78;;
7571;SDS011;3827;49.928;8.548;2023-04-06T03:53:30;6.10;;;4.65;;
7571;SDS011;3827;49.928;8.548;2023-04-06T03:55:57;4.60;;;4.13;;
7571;SDS011;3827;49.928;8.548;2023-04-06T03:58:26;5.07;;;4.68;;
7571;SDS011;3827;49.928;8.548;2023-04-06T04:00:53;4.78;;;4.38;;
7571;SDS011;3827;49.928;8.548;2023-04-06T04:03:20;4.95;;;4.55;;
7571;SDS011;3827;49.928;8.548;2023-04-06T04:05:48;5.13;;;4.63;;
7571;SDS011;3827;49.928;8.548;2023-04-06T04:08:16;4.65;;;4.28;;
7571;SDS011;3827;49.928;8.548;2023-04-06T04:10:42;5.35;;;4.60;;
7571;SDS011;3827;49.928;8.548;2023-04-06T04:13:09;5.90;;;4.90;;
7571;SDS011;3827;49.928;8.548;2023-04-06T04:15:38;5.68;;;5.13;;
7571;SDS011;3827;49.928;8.548;2023-04-06T04:18:05;6.10;;;5.60;;
7571;SDS011;3827;49.928;8.548;2023-04-06T04:20:32;6.27;;;5.60;;
7571;SDS011;3827;49.928;8.548;2023-04-06T04:22:59;5.47;;;5.00;;
7571;SDS011;3827;49.928;8.548;2023-04-06T04:25:26;5.10;;;4.70;;
7571;SDS011;3827;49.928;8.548;2023-04-06T04:27:52;5.07;;;4.68;;
7571;SDS011;3827;49.928;8.548;2023-04-06T04:30:19;5.40;;;4.90;;
7571;SDS011;3827;49.928;8.548;2023-04-06T04:32:48;5.13;;;4.63;;
7571;SDS011;3827;49.928;8.548;2023-04-06T04:35:17;5.70;;;5.25;;
7571;SDS011;3827;49.928;8.548;2023-04-06T04:37:47;5.30;;;4.82;;
7571;SDS011;3827;49.928;8.548;2023-04-06T04:40:14;5.72;;;4.70;;
7571;SDS011;3827;49.928;8.548;2023-04-06T04:42:41;5.97;;;5.38;;
7571;SDS011;3827;49.928;8.548;2023-04-06T04:45:08;5.55;;;4.80;;
7571;SDS011;3827;49.928;8.548;2023-04-06T04:47:36;5.57;;;5.07;;
7571;SDS011;3827;49.928;8.548;2023-04-06T04:50:05;5.40;;;4.97;;
7571;SDS011;3827;49.928;8.548;2023-04-06T04:52:32;6.37;;;5.77;;
7571;SDS011;3827;49.928;8.548;2023-04-06T04:54:59;6.78;;;6.00;;
7571;SDS011;3827;49.928;8.548;2023-04-06T04:57:26;6.00;;;5.50;;
7571;SDS011;3827;49.928;8.548;2023-04-06T04:59:53;6.20;;;5.70;;
7571;SDS011;3827;49.928;8.548;2023-04-06T05:02:20;5.53;;;5.03;;
7571;SDS011;3827;49.928;8.548;2023-04-06T05:04:47;5.50;;;5.10;;
7571;SDS011;3827;49.928;8.548;2023-04-06T05:07:15;5.70;;;5.20;;
7571;SDS011;3827;49.928;8.548;2023-04-06T05:09:43;8.32;;;6.90;;
7571;SDS011;3827;49.928;8.548;2023-04-06T05:12:10;8.23;;;7.53;;
7571;SDS011;3827;49.928;8.548;2023-04-06T05:14:37;8.23;;;7.53;;
7571;SDS011;3827;49.928;8.548;2023-04-06T05:17:04;7.13;;;6.45;;
7571;SDS011;3827;49.928;8.548;2023-04-06T05:19:31;6.93;;;6.25;;
7571;SDS011;3827;49.928;8.548;2023-04-06T05:21:58;6.88;;;6.18;;
7571;SDS011;3827;49.928;8.548;2023-04-06T05:24:26;8.52;;;7.43;;
7571;SDS011;3827;49.928;8.548;2023-04-06T05:26:53;7.70;;;6.90;;
7571;SDS011;3827;49.928;8.548;2023-04-06T05:29:20;7.40;;;6.70;;
7571;SDS011;3827;49.928;8.548;2023-04-06T05:31:47;7.30;;;6.70;;
7571;SDS011;3827;49.928;8.548;2023-04-06T05:34:14;7.30;;;6.60;;
7571;SDS011;3827;49.928;8.548;2023-04-06T05:36:41;7.93;;;7.22;;
7571;SDS011;3827;49.928;8.548;2023-04-06T05:39:08;7.93;;;7.20;;
7571;SDS011;3827;49.928;8.548;2023-04-06T05:41:38;8.60;;;7.75;;
7571;SDS011;3827;49.928;8.548;2023-04-06T05:44:05;8.23;;;7.53;;
7571;SDS011;3827;49.928;8.548;2023-04-06T05:46:32;7.75;;;7.05;;
7571;SDS011;3827;49.928;8.548;2023-04-06T05:49:06;7.75;;;7.03;;
7571;SDS011;3827;49.928;8.548;2023-04-06T05:51:42;7.00;;;6.40;;
7571;SDS011;3827;49.928;8.548;2023-04-06T05:54:09;7.97;;;6.70;;
7571;SDS011;3827;49.928;8.548;2023-04-06T05:56:36;8.10;;;7.40;;
7571;SDS011;3827;49.928;8.548;2023-04-06T05:59:04;8.73;;;7.55;;
7571;SDS011;3827;49.928;8.548;2023-04-06T06:01:32;8.13;;;7.40;;
7571;SDS011;3827;49.928;8.548;2023-04-06T06:04:00;8.00;;;7.30;;
7571;SDS011;3827;49.928;8.548;2023-04-06T06:06:27;7.93;;;7.05;;
7571;SDS011;3827;49.928;8.548;2023-04-06T06:08:55;7.50;;;6.80;;
7571;SDS011;3827;49.928;8.548;2023-04-06T06:11:24;7.53;;;6.80;;
7571;SDS011;3827;49.928;8.548;2023-04-06T06:13:50;7.00;;;6.40;;
7571;SDS011;3827;49.928;8.548;2023-04-06T06:16:19;10.10;;;9.10;;
7571;SDS011;3827;49.928;8.548;2023-04-06T06:18:46;10.73;;;9.43;;
7571;SDS011;3827;49.928;8.548;2023-04-06T06:21:13;9.88;;;8.90;;
7571;SDS011;3827;49.928;8.548;2023-04-06T06:23:42;9.50;;;8.60;;
7571;SDS011;3827;49.928;8.548;2023-04-06T06:26:09;8.40;;;7.70;;
7571;SDS011;3827;49.928;8.548;2023-04-06T06:28:36;8.00;;;7.20;;
7571;SDS011;3827;49.928;8.548;2023-04-06T06:33:41;7.30;;;6.50;;
7571;SDS011;3827;49.928;8.548;2023-04-06T06:36:08;7.25;;;6.57;;
7571;SDS011;3827;49.928;8.548;2023-04-06T06:38:35;7.50;;;6.80;;
7571;SDS011;3827;49.928;8.548;2023-04-06T06:41:03;8.90;;;7.80;;
7571;SDS011;3827;49.928;8.548;2023-04-06T06:43:30;7.77;;;6.97;;
7571;SDS011;3827;49.928;8.548;2023-04-06T06:45:57;8.63;;;7.80;;
7571;SDS011;3827;49.928;8.548;2023-04-06T06:48:24;8.60;;;7.80;;
7571;SDS011;3827;49.928;8.548;2023-04-06T06:50:53;9.18;;;8.32;;
7571;SDS011;3827;49.928;8.548;2023-04-06T06:53:20;10.00;;;8.23;;
7571;SDS011;3827;49.928;8.548;2023-04-06T06:55:47;8.02;;;7.32;;
7571;SDS011;3827;49.928;8.548;2023-04-06T06:58:14;8.40;;;7.70;;
7571;SDS011;3827;49.928;8.548;2023-04-06T07:00:44;8.98;;;8.13;;
7571;SDS011;3827;49.928;8.548;2023-04-06T07:03:11;10.15;;;9.30;;
7571;SDS011;3827;49.928;8.548;2023-04-06T07:05:38;10.57;;;9.57;;
7571;SDS011;3827;49.928;8.548;2023-04-06T07:08:06;9.77;;;8.88;;
7571;SDS011;3827;49.928;8.548;2023-04-06T07:10:33;10.43;;;9.43;;
7571;SDS011;3827;49.928;8.548;2023-04-06T07:13:00;11.45;;;10.45;;
7571;SDS011;3827;49.928;8.548;2023-04-06T07:15:27;11.48;;;10.38;;
7571;SDS011;3827;49.928;8.548;2023-04-06T07:17:55;11.35;;;10.35;;
7571;SDS011;3827;49.928;8.548;2023-04-06T07:20:22;12.55;;;10.25;;
7571;SDS011;3827;49.928;8.548;2023-04-06T07:22:49;11.98;;;10.77;;
7571;SDS011;3827;49.928;8.548;2023-04-06T07:25:17;11.35;;;10.25;;
7571;SDS011;3827;49.928;8.548;2023-04-06T07:27:44;11.07;;;9.88;;
7571;SDS011;3827;49.928;8.548;2023-04-06T07:30:11;10.77;;;9.68;;
7571;SDS011;3827;49.928;8.548;2023-04-06T07:32:39;11.60;;;10.50;;
7571;SDS011;3827;49.928;8.548;2023-04-06T07:35:06;11.02;;;9.93;;
7571;SDS011;3827;49.928;8.548;2023-04-06T07:37:33;11.65;;;10.18;;
7571;SDS011;3827;49.928;8.548;2023-04-06T07:40:00;10.65;;;9.60;;
7571;SDS011;3827;49.928;8.548;2023-04-06T07:42:29;10.82;;;9.73;;
7571;SDS011;3827;49.928;8.548;2023-04-06T07:44:58;10.37;;;9.47;;
7571;SDS011;3827;49.928;8.548;2023-04-06T07:47:25;9.82;;;9.05;;
7571;SDS011;3827;49.928;8.548;2023-04-06T07:49:53;10.57;;;9.50;;
7571;SDS011;3827;49.928;8.548;2023-04-06T07:52:21;10.52;;;9.45;;
7571;SDS011;3827;49.928;8.548;2023-04-06T07:54:48;10.23;;;9.32;;
7571;SDS011;3827;49.928;8.548;2023-04-06T07:57:16;9.88;;;9.07;;
7571;SDS011;3827;49.928;8.548;2023-04-06T07:59:45;10.68;;;9.68;;
7571;SDS011;3827;49.928;8.548;2023-04-06T08:02:12;10.05;;;9.23;;
7571;SDS011;3827;49.928;8.548;2023-04-06T08:04:39;10.15;;;9.20;;
7571;SDS011;3827;49.928;8.548;2023-04-06T08:07:06;10.43;;;9.18;;
7571;SDS011;3827;49.928;8.548;2023-04-06T08:09:33;10.23;;;9.23;;
7571;SDS011;3827;49.928;8.548;2023-04-06T08:12:00;10.18;;;9.15;;
7571;SDS011;3827;49.928;8.548;2023-04-06T08:14:27;10.52;;;9.43;;
7571;SDS011;3827;49.928;8.548;2023-04-06T08:16:56;10.18;;;9.27;;
7571;SDS011;3827;49.928;8.548;2023-04-06T08:19:23;10.98;;;9.20;;
7571;SDS011;3827;49.928;8.548;2023-04-06T08:21:50;9.50;;;8.60;;
7571;SDS011;3827;49.928;8.548;2023-04-06T08:24:17;9.73;;;8.73;;
7571;SDS011;3827;49.928;8.548;2023-04-06T08:26:44;10.70;;;9.57;;
7571;SDS011;3827;49.928;8.548;2023-04-06T08:29:11;9.32;;;8.52;;
7571;SDS011;3827;49.928;8.548;2023-04-06T08:31:38;9.25;;;8.35;;
7571;SDS011;3827;49.928;8.548;2023-04-06T08:34:07;10.80;;;9.70;;
7571;SDS011;3827;49.928;8.548;2023-04-06T08:36:34;9.93;;;9.02;;
7571;SDS011;3827;49.928;8.548;2023-04-06T08:39:01;14.02;;;12.88;;
7571;SDS011;3827;49.928;8.548;2023-04-06T08:41:28;10.95;;;10.05;;
7571;SDS011;3827;49.928;8.548;2023-04-06T08:43:56;9.80;;;8.90;;
7571;SDS011;3827;49.928;8.548;2023-04-06T08:46:24;9.63;;;8.63;;
7571;SDS011;3827;49.928;8.548;2023-04-06T08:48:54;10.68;;;9.65;;
7571;SDS011;3827;49.928;8.548;2023-04-06T08:51:24;9.00;;;8.07;;
7571;SDS011;3827;49.928;8.548;2023-04-06T08:53:52;9.03;;;8.23;;
7571;SDS011;3827;49.928;8.548;2023-04-06T08:56:20;8.82;;;7.93;;
7571;SDS011;3827;49.928;8.548;2023-04-06T08:58:48;8.95;;;8.07;;
7571;SDS011;3827;49.928;8.548;2023-04-06T09:01:16;8.93;;;8.10;;
7571;SDS011;3827;49.928;8.548;2023-04-06T09:03:46;8.88;;;8.02;;
7571;SDS011;3827;49.928;8.548;2023-04-06T09:06:16;8.23;;;7.43;;
7571;SDS011;3827;49.928;8.548;2023-04-06T09:08:45;8.32;;;7.63;;
7571;SDS011;3827;49.928;8.548;2023-04-06T09:11:12;8.47;;;7.63;;
7571;SDS011;3827;49.928;8.548;2023-04-06T09:13:44;9.23;;;8.32;;
7571;SDS011;3827;49.928;8.548;2023-04-06T09:16:12;8.37;;;7.57;;
7571;SDS011;3827;49.928;8.548;2023-04-06T09:18:40;8.38;;;7.57;;
7571;SDS011;3827;49.928;8.548;2023-04-06T09:21:08;9.10;;;8.20;;
7571;SDS011;3827;49.928;8.548;2023-04-06T09:23:35;8.38;;;7.57;;
7571;SDS011;3827;49.928;8.548;2023-04-06T09:26:08;8.57;;;7.78;;
7571;SDS011;3827;49.928;8.548;2023-04-06T09:28:45;8.48;;;7.68;;
7571;SDS011;3827;49.928;8.548;2023-04-06T09:31:14;9.57;;;8.57;;
7571;SDS011;3827;49.928;8.548;2023-04-06T09:33:42;9.10;;;8.30;;
7571;SDS011;3827;49.928;8.548;2023-04-06T09:36:10;8.67;;;7.97;;
7571;SDS011;3827;49.928;8.548;2023-04-06T09:38:50;9.02;;;8.15;;
7571;SDS011;3827;49.928;8.548;2023-04-06T09:41:24;9.02;;;8.13;;
7571;SDS011;3827;49.928;8.548;2023-04-06T09:43:52;10.30;;;9.20;;
7571;SDS011;3827;49.928;8.548;2023-04-06T09:46:27;9.80;;;8.90;;
7571;SDS011;3827;49.928;8.548;2023-04-06T09:48:58;9.70;;;8.80;;
7571;SDS011;3827;49.928;8.548;2023-04-06T09:51:26;9.23;;;8.32;;
7571;SDS011;3827;49.928;8.548;2023-04-06T09:53:56;9.80;;;8.50;;
7571;SDS011;3827;49.928;8.548;2023-04-06T09:56:30;9.75;;;8.75;;
7571;SDS011;3827;49.928;8.548;2023-04-06T09:59:01;10.15;;;7.70;;
7571;SDS011;3827;49.928;8.548;2023-04-06T10:01:32;9.38;;;8.48;;
7571;SDS011;3827;49.928;8.548;2023-04-06T10:04:04;9.88;;;8.93;;
7571;SDS011;3827;49.928;8.548;2023-04-06T10:06:44;9.85;;;8.85;;
7571;SDS011;3827;49.928;8.548;2023-04-06T10:09:17;9.30;;;8.32;;
7571;SDS011;3827;49.928;8.548;2023-04-06T10:11:50;9.65;;;8.20;;
7571;SDS011;3827;49.928;8.548;2023-04-06T10:14:17;9.68;;;8.43;;
7571;SDS011;3827;49.928;8.548;2023-04-06T10:16:44;10.13;;;8.20;;
7571;SDS011;3827;49.928;8.548;2023-04-06T10:19:15;9.20;;;8.27;;
7571;SDS011;3827;49.928;8.548;2023-04-06T10:21:47;11.00;;;8.70;;
7571;SDS011;3827;49.928;8.548;2023-04-06T10:24:17;9.90;;;8.90;;
7571;SDS011;3827;49.928;8.548;2023-04-06T10:26:56;11.05;;;9.02;;
7571;SDS011;3827;49.928;8.548;2023-04-06T10:29:23;9.80;;;8.55;;
7571;SDS011;3827;49.928;8.548;2023-04-06T10:31:50;9.67;;;8.67;;
7571;SDS011;3827;49.928;8.548;2023-04-06T10:34:17;10.02;;;8.63;;
7571;SDS011;3827;49.928;8.548;2023-04-06T10:36:44;9.45;;;8.55;;
7571;SDS011;3827;49.928;8.548;2023-04-06T10:39:11;10.25;;;8.77;;
7571;SDS011;3827;49.928;8.548;2023-04-06T10:41:40;9.90;;;8.90;;
7571;SDS011;3827;49.928;8.548;2023-04-06T10:44:18;9.77;;;8.10;;
7571;SDS011;3827;49.928;8.548;2023-04-06T10:46:52;9.15;;;8.30;;
7571;SDS011;3827;49.928;8.548;2023-04-06T10:49:20;9.38;;;8.43;;
7571;SDS011;3827;49.928;8.548;2023-04-06T10:51:51;10.00;;;9.00;;
7571;SDS011;3827;49.928;8.548;2023-04-06T10:54:20;8.82;;;7.93;;
7571;SDS011;3827;49.928;8.548;2023-04-06T10:56:48;10.20;;;9.13;;
7571;SDS011;3827;49.928;8.548;2023-04-06T10:59:19;9.65;;;7.45;;
7571;SDS011;3827;49.928;8.548;2023-04-06T11:01:47;9.82;;;8.15;;
7571;SDS011;3827;49.928;8.548;2023-04-06T11:04:15;9.30;;;8.33;;
7571;SDS011;3827;49.928;8.548;2023-04-06T11:06:45;12.40;;;11.27;;
7571;SDS011;3827;49.928;8.548;2023-04-06T11:09:22;11.73;;;9.80;;
7571;SDS011;3827;49.928;8.548;2023-04-06T11:11:51;9.35;;;8.45;;
7571;SDS011;3827;49.928;8.548;2023-04-06T11:14:19;9.35;;;8.48;;
7571;SDS011;3827;49.928;8.548;2023-04-06T11:16:47;12.90;;;11.70;;
7571;SDS011;3827;49.928;8.548;2023-04-06T11:19:15;11.83;;;10.63;;
7571;SDS011;3827;49.928;8.548;2023-04-06T11:21:43;9.85;;;7.93;;
7571;SDS011;3827;49.928;8.548;2023-04-06T11:24:13;9.40;;;8.40;;
7571;SDS011;3827;49.928;8.548;2023-04-06T11:26:41;9.35;;;7.93;;
7571;SDS011;3827;49.928;8.548;2023-04-06T11:29:10;11.17;;;8.43;;
7571;SDS011;3827;49.928;8.548;2023-04-06T11:31:40;9.15;;;8.25;;
7571;SDS011;3827;49.928;8.548;2023-04-06T11:34:09;8.60;;;7.80;;
7571;SDS011;3827;49.928;8.548;2023-04-06T11:36:42;9.70;;;7.47;;
7571;SDS011;3827;49.928;8.548;2023-04-06T11:39:09;10.43;;;8.15;;
7571;SDS011;3827;49.928;8.548;2023-04-06T11:41:37;9.07;;;8.18;;
7571;SDS011;3827;49.928;8.548;2023-04-06T11:44:05;9.35;;;8.35;;
7571;SDS011;3827;49.928;8.548;2023-04-06T11:46:32;8.50;;;7.60;;
7571;SDS011;3827;49.928;8.548;2023-04-06T11:49:00;9.70;;;7.80;;
7571;SDS011;3827;49.928;8.548;2023-04-06T11:51:28;8.95;;;8.05;;
7571;SDS011;3827;49.928;8.548;2023-04-06T11:53:55;8.98;;;8.13;;
7571;SDS011;3827;49.928;8.548;2023-04-06T11:56:26;9.07;;;8.18;;
7571;SDS011;3827;49.928;8.548;2023-04-06T11:58:54;10.20;;;8.70;;
7571;SDS011;3827;49.928;8.548;2023-04-06T12:01:22;9.70;;;8.70;;
7571;SDS011;3827;49.928;8.548;2023-04-06T12:03:50;9.07;;;8.23;;
7571;SDS011;3827;49.928;8.548;2023-04-06T12:06:19;11.05;;;8.75;;
7571;SDS011;3827;49.928;8.548;2023-04-06T12:08:47;10.70;;;8.18;;
7571;SDS011;3827;49.928;8.548;2023-04-06T12:11:14;10.23;;;8.38;;
7571;SDS011;3827;49.928;8.548;2023-04-06T12:13:41;7.80;;;7.10;;
7571;SDS011;3827;49.928;8.548;2023-04-06T12:16:08;9.07;;;8.18;;
7571;SDS011;3827;49.928;8.548;2023-04-06T12:18:35;8.95;;;7.80;;
7571;SDS011;3827;49.928;8.548;2023-04-06T12:21:02;8.32;;;7.53;;
7571;SDS011;3827;49.928;8.548;2023-04-06T12:23:32;9.48;;;7.70;;
7571;SDS011;3827;49.928;8.548;2023-04-06T12:25:59;12.83;;;9.03;;
7571;SDS011;3827;49.928;8.548;2023-04-06T12:28:26;9.60;;;8.07;;
7571;SDS011;3827;49.928;8.548;2023-04-06T12:30:54;8.73;;;7.82;;
7571;SDS011;3827;49.928;8.548;2023-04-06T12:33:21;8.18;;;7.38;;
7571;SDS011;3827;49.928;8.548;2023-04-06T12:35:48;18.50;;;15.48;;
7571;SDS011;3827;49.928;8.548;2023-04-06T12:38:15;12.40;;;11.07;;
7571;SDS011;3827;49.928;8.548;2023-04-06T12:40:44;10.70;;;9.60;;
7571;SDS011;3827;49.928;8.548;2023-04-06T12:43:11;13.02;;;11.05;;
7571;SDS011;3827;49.928;8.548;2023-04-06T12:45:38;7.88;;;7.07;;
7571;SDS011;3827;49.928;8.548;2023-04-06T12:48:06;9.45;;;7.70;;
7571;SDS011;3827;49.928;8.548;2023-04-06T12:50:33;9.20;;;7.95;;
7571;SDS011;3827;49.928;8.548;2023-04-06T12:53:00;8.47;;;7.63;;
7571;SDS011;3827;49.928;8.548;2023-04-06T12:55:29;8.13;;;6.75;;
7571;SDS011;3827;49.928;8.548;2023-04-06T12:58:00;8.80;;;7.90;;
7571;SDS011;3827;49.928;8.548;2023-04-06T13:00:28;7.97;;;7.17;;
7571;SDS011;3827;49.928;8.548;2023-04-06T13:02:55;10.20;;;7.47;;
7571;SDS011;3827;49.928;8.548;2023-04-06T13:05:22;7.68;;;6.80;;
7571;SDS011;3827;49.928;8.548;2023-04-06T13:07:49;9.40;;;7.47;;
7571;SDS011;3827;49.928;8.548;2023-04-06T13:10:16;7.43;;;6.40;;
7571;SDS011;3827;49.928;8.548;2023-04-06T13:12:43;7.65;;;6.32;;
7571;SDS011;3827;49.928;8.548;2023-04-06T13:15:12;6.55;;;5.68;;
7571;SDS011;3827;49.928;8.548;2023-04-06T13:17:40;6.93;;;6.22;;
7571;SDS011;3827;49.928;8.548;2023-04-06T13:20:07;7.80;;;6.32;;
7571;SDS011;3827;49.928;8.548;2023-04-06T13:22:35;6.97;;;6.28;;
7571;SDS011;3827;49.928;8.548;2023-04-06T13:25:02;7.28;;;6.50;;
7571;SDS011;3827;49.928;8.548;2023-04-06T13:27:30;6.10;;;5.50;;
7571;SDS011;3827;49.928;8.548;2023-04-06T13:29:58;7.72;;;6.00;;
7571;SDS011;3827;49.928;8.548;2023-04-06T13:32:27;6.43;;;5.80;;
7571;SDS011;3827;49.928;8.548;2023-04-06T13:34:55;7.32;;;6.18;;
7571;SDS011;3827;49.928;8.548;2023-04-06T13:37:22;5.93;;;5.28;;
7571;SDS011;3827;49.928;8.548;2023-04-06T13:39:49;7.57;;;6.18;;
7571;SDS011;3827;49.928;8.548;2023-04-06T13:42:16;7.70;;;6.15;;
7571;SDS011;3827;49.928;8.548;2023-04-06T13:44:43;8.90;;;6.72;;
7571;SDS011;3827;49.928;8.548;2023-04-06T13:47:11;7.68;;;6.97;;
7571;SDS011;3827;49.928;8.548;2023-04-06T13:49:41;7.97;;;6.30;;
7571;SDS011;3827;49.928;8.548;2023-04-06T13:52:08;7.70;;;6.47;;
7571;SDS011;3827;49.928;8.548;2023-04-06T13:54:36;9.20;;;6.65;;
7571;SDS011;3827;49.928;8.548;2023-04-06T13:57:03;12.93;;;11.65;;
7571;SDS011;3827;49.928;8.548;2023-04-06T13:59:33;6.95;;;6.25;;
7571;SDS011;3827;49.928;8.548;2023-04-06T14:02:01;6.10;;;5.50;;
7571;SDS011;3827;49.928;8.548;2023-04-06T14:04:28;8.87;;;7.97;;
7571;SDS011;3827;49.928;8.548;2023-04-06T14:06:57;12.52;;;11.32;;
7571;SDS011;3827;49.928;8.548;2023-04-06T14:09:24;7.35;;;6.32;;
7571;SDS011;3827;49.928;8.548;2023-04-06T14:11:51;9.30;;;7.18;;
7571;SDS011;3827;49.928;8.548;2023-04-06T14:14:18;7.88;;;7.07;;
7571;SDS011;3827;49.928;8.548;2023-04-06T14:16:46;7.22;;;6.45;;
7571;SDS011;3827;49.928;8.548;2023-04-06T14:19:14;7.10;;;6.40;;
7571;SDS011;3827;49.928;8.548;2023-04-06T14:21:42;7.15;;;6.43;;
7571;SDS011;3827;49.928;8.548;2023-04-06T14:24:11;7.10;;;6.40;;
7571;SDS011;3827;49.928;8.548;2023-04-06T14:26:38;7.68;;;6.90;;
7571;SDS011;3827;49.928;8.548;2023-04-06T14:29:06;7.35;;;6.65;;
7571;SDS011;3827;49.928;8.548;2023-04-06T14:31:34;7.68;;;6.95;;
7571;SDS011;3827;49.928;8.548;2023-04-06T14:34:01;9.10;;;6.53;;
7571;SDS011;3827;49.928;8.548;2023-04-06T14:36:29;7.50;;;6.57;;
7571;SDS011;3827;49.928;8.548;2023-04-06T14:39:01;6.85;;;6.15;;
7571;SDS011;3827;49.928;8.548;2023-04-06T14:41:31;7.25;;;6.20;;
7571;SDS011;3827;49.928;8.548;2023-04-06T14:43:58;7.70;;;7.00;;
7571;SDS011;3827;49.928;8.548;2023-04-06T14:46:25;7.88;;;7.18;;
7571;SDS011;3827;49.928;8.548;2023-04-06T14:48:54;8.52;;;7.15;;
7571;SDS011;3827;49.928;8.548;2023-04-06T14:51:23;7.85;;;7.07;;
7571;SDS011;3827;49.928;8.548;2023-04-06T14:53:51;8.18;;;7.38;;
7571;SDS011;3827;49.928;8.548;2023-04-06T14:56:21;8.43;;;7.10;;
7571;SDS011;3827;49.928;8.548;2023-04-06T14:58:49;8.18;;;7.05;;
7571;SDS011;3827;49.928;8.548;2023-04-06T15:01:18;8.05;;;7.07;;
7571;SDS011;3827;49.928;8.548;2023-04-06T15:03:45;8.95;;;6.90;;
7571;SDS011;3827;49.928;8.548;2023-04-06T15:06:12;10.48;;;7.18;;
7571;SDS011;3827;49.928;8.548;2023-04-06T15:08:41;10.27;;;6.80;;
7571;SDS011;3827;49.928;8.548;2023-04-06T15:11:08;8.52;;;6.07;;
7571;SDS011;3827;49.928;8.548;2023-04-06T15:13:35;12.70;;;6.45;;
7571;SDS011;3827;49.928;8.548;2023-04-06T15:16:04;5.30;;;4.80;;
7571;SDS011;3827;49.928;8.548;2023-04-06T15:18:32;6.97;;;4.57;;